Time;durP1;ratioP1;P1;durP2;ratioP2;P2;SDS_P1;SDS_P2;PMS_P1;PMS_P2;Temp;Humidity;BMP_temperature;BMP_pressure;BME280_temperature;BME280_humidity;BME280_pressure;Samples;Min_cycle;Max_cycle;Signal;HPM_P1;HPM_P2
2022/05/15 00:01:29;;;;;;;12.30;3.58;;;;;;;;;;6142059;23;20173;-92
2022/05/15 00:04:34;;;;;;;7.13;3.55;;;;;;;;;;6124155;23;20242;-91
2022/05/15 00:07:40;;;;;;;7.28;3.42;;;;;;;;;;6122230;23;20188;-91
2022/05/15 00:10:45;;;;;;;8.75;4.10;;;;;;;;;;6123814;23;20173;-89
2022/05/15 00:13:53;;;;;;;7.25;4.38;;;;;;;;;;6124908;23;20245;-90
2022/05/15 00:16:58;;;;;;;10.05;3.28;;;;;;;;;;6143310;23;20177;-92
2022/05/15 00:20:06;;;;;;;8.68;3.33;;;;;;;;;;6124454;23;20698;-91
2022/05/15 00:23:12;;;;;;;8.68;4.15;;;;;;;;;;6125138;23;20169;-91
2022/05/15 00:26:18;;;;;;;10.25;3.90;;;;;;;;;;6140151;23;20657;-90
2022/05/15 00:29:25;;;;;;;8.32;3.40;;;;;;;;;;6123847;23;20177;-92
2022/05/15 00:32:32;;;;;;;6.10;3.17;;;;;;;;;;6142861;23;20181;-90
2022/05/15 00:35:38;;;;;;;9.27;3.53;;;;;;;;;;6141604;23;20172;-90
2022/05/15 00:38:44;;;;;;;7.32;3.50;;;;;;;;;;6141468;23;20165;-91
2022/05/15 00:41:49;;;;;;;12.05;3.47;;;;;;;;;;6140423;23;20165;-90
2022/05/15 00:44:56;;;;;;;8.60;3.03;;;;;;;;;;6124100;23;20485;-90
2022/05/15 00:48:01;;;;;;;10.90;3.65;;;;;;;;;;6144926;23;20153;-91
2022/05/15 00:51:10;;;;;;;11.00;3.50;;;;;;;;;;6125358;23;20201;-92
2022/05/15 00:54:18;;;;;;;6.10;3.28;;;;;;;;;;6124131;23;20201;-91
2022/05/15 00:57:26;;;;;;;9.60;4.10;;;;;;;;;;6140900;23;20286;-90
2022/05/15 01:00:34;;;;;;;6.15;3.88;;;;;;;;;;6140558;23;20202;-89
2022/05/15 01:03:39;;;;;;;8.40;3.22;;;;;;;;;;6123199;23;20169;-90
2022/05/15 01:06:48;;;;;;;5.30;3.30;;;;;;;;;;6097167;23;20201;-91
2022/05/15 01:09:54;;;;;;;8.60;3.70;;;;;;;;;;6139560;23;20168;-90
2022/05/15 01:13:00;;;;;;;8.07;3.63;;;;;;;;;;6120916;23;20182;-90
2022/05/15 01:16:07;;;;;;;9.63;4.32;;;;;;;;;;6136650;23;20169;-90
2022/05/15 01:19:15;;;;;;;8.32;3.30;;;;;;;;;;6138520;23;20169;-90
2022/05/15 01:22:22;;;;;;;7.90;3.50;;;;;;;;;;6139043;23;20168;-90
2022/05/15 01:25:30;;;;;;;10.35;3.30;;;;;;;;;;6138454;23;20273;-91
2022/05/15 01:28:36;;;;;;;8.13;3.85;;;;;;;;;;6119773;23;20181;-90
2022/05/15 01:31:42;;;;;;;7.55;3.25;;;;;;;;;;6136582;23;20181;-90
2022/05/15 01:34:47;;;;;;;7.28;3.35;;;;;;;;;;6140928;23;20184;-90
2022/05/15 01:37:54;;;;;;;8.52;3.30;;;;;;;;;;6141279;23;20213;-92
2022/05/15 01:40:59;;;;;;;8.25;3.35;;;;;;;;;;6123460;23;20613;-91
2022/05/15 01:44:05;;;;;;;9.55;3.65;;;;;;;;;;6140945;23;20160;-90
2022/05/15 01:47:13;;;;;;;6.07;3.40;;;;;;;;;;6138198;23;20160;-90
2022/05/15 01:50:18;;;;;;;8.30;3.95;;;;;;;;;;6138033;23;20176;-90
2022/05/15 01:53:25;;;;;;;5.88;2.97;;;;;;;;;;6139788;23;20226;-90
2022/05/15 01:56:30;;;;;;;10.40;3.70;;;;;;;;;;6141726;23;20248;-90
2022/05/15 01:59:37;;;;;;;7.93;3.42;;;;;;;;;;6125754;23;20172;-91
2022/05/15 02:02:43;;;;;;;7.85;3.83;;;;;;;;;;6141464;23;20246;-91
2022/05/15 02:05:48;;;;;;;4.68;3.22;;;;;;;;;;6141629;23;20148;-89
2022/05/15 02:08:55;;;;;;;8.50;3.50;;;;;;;;;;6141531;23;20168;-90
2022/05/15 02:12:00;;;;;;;9.30;3.47;;;;;;;;;;6124062;23;20613;-90
2022/05/15 02:15:06;;;;;;;5.40;3.53;;;;;;;;;;6143055;23;20217;-90
2022/05/15 02:18:11;;;;;;;12.52;3.40;;;;;;;;;;6142482;23;20246;-91
2022/05/15 02:21:16;;;;;;;9.95;3.15;;;;;;;;;;6123997;23;20290;-87
2022/05/15 02:24:23;;;;;;;6.10;3.30;;;;;;;;;;6141931;23;20169;-90
2022/05/15 02:27:29;;;;;;;6.68;3.35;;;;;;;;;;6124123;23;20178;-91
2022/05/15 02:30:34;;;;;;;8.40;3.67;;;;;;;;;;6124511;23;20173;-89
2022/05/15 02:33:40;;;;;;;11.70;3.58;;;;;;;;;;6123153;23;20285;-90
2022/05/15 02:36:46;;;;;;;11.65;3.70;;;;;;;;;;6122559;23;20245;-90
2022/05/15 02:39:53;;;;;;;6.57;3.38;;;;;;;;;;6123301;23;20156;-90
2022/05/15 02:42:59;;;;;;;7.32;3.67;;;;;;;;;;6140893;23;20153;-91
2022/05/15 02:46:04;;;;;;;5.57;3.80;;;;;;;;;;6140542;23;20173;-90
2022/05/15 02:52:33;;;;;;;6.90;3.58;;;;;;;;;;6140199;23;20481;-90
2022/05/15 02:55:41;;;;;;;6.45;3.70;;;;;;;;;;6122573;23;20209;-90
2022/05/15 02:58:46;;;;;;;8.25;3.70;;;;;;;;;;6140136;23;20173;-91
2022/05/15 03:01:51;;;;;;;5.68;3.40;;;;;;;;;;6125464;23;20164;-91
2022/05/15 03:04:56;;;;;;;7.57;3.75;;;;;;;;;;6141179;23;20169;-91
2022/05/15 03:08:02;;;;;;;4.82;3.47;;;;;;;;;;6140486;23;20649;-90
2022/05/15 03:11:09;;;;;;;8.35;3.67;;;;;;;;;;6124819;23;20165;-90
2022/05/15 03:14:14;;;;;;;6.75;3.55;;;;;;;;;;6142696;23;20196;-89
2022/05/15 03:17:19;;;;;;;9.45;4.07;;;;;;;;;;6141771;23;20537;-90
2022/05/15 03:20:27;;;;;;;13.85;3.75;;;;;;;;;;6124370;23;20189;-91
2022/05/15 03:23:32;;;;;;;7.65;3.70;;;;;;;;;;6142471;23;20152;-93
2022/05/15 03:26:40;;;;;;;5.80;3.50;;;;;;;;;;6123897;23;20177;-92
2022/05/15 03:29:45;;;;;;;6.50;3.47;;;;;;;;;;6142780;23;20166;-90
2022/05/15 03:32:51;;;;;;;10.50;3.72;;;;;;;;;;6140239;23;20185;-90
2022/05/15 03:35:56;;;;;;;8.15;3.47;;;;;;;;;;6141897;23;20270;-89
2022/05/15 03:39:01;;;;;;;10.02;3.70;;;;;;;;;;6125631;23;20181;-91
2022/05/15 03:42:08;;;;;;;10.07;3.33;;;;;;;;;;6125241;23;20213;-89
2022/05/15 03:45:13;;;;;;;9.60;3.88;;;;;;;;;;6141640;23;20213;-90
2022/05/15 03:48:18;;;;;;;8.65;3.42;;;;;;;;;;6139398;23;20158;-90
2022/05/15 03:51:24;;;;;;;7.00;3.72;;;;;;;;;;6124289;23;20661;-91
2022/05/15 03:54:29;;;;;;;6.47;3.88;;;;;;;;;;6123950;23;20197;-90
2022/05/15 03:57:36;;;;;;;5.15;3.25;;;;;;;;;;6139447;23;20186;-90
2022/05/15 04:01:13;;;;;;;7.78;3.00;;;;;;;;;;6123313;23;20173;-90
2022/05/15 04:04:18;;;;;;;7.68;3.20;;;;;;;;;;6142959;23;20182;-90
2022/05/15 04:07:23;;;;;;;8.02;3.60;;;;;;;;;;6124150;23;20244;-89
2022/05/15 04:10:30;;;;;;;6.53;3.47;;;;;;;;;;6141425;23;20593;-89
2022/05/15 04:13:37;;;;;;;5.93;3.67;;;;;;;;;;6125606;23;20161;-90
2022/05/15 04:16:42;;;;;;;4.80;3.08;;;;;;;;;;6140029;23;20249;-90
2022/05/15 04:19:49;;;;;;;6.18;3.20;;;;;;;;;;6139783;23;20619;-90
2022/05/15 04:22:54;;;;;;;5.57;3.20;;;;;;;;;;6123167;23;20217;-89
2022/05/15 04:26:00;;;;;;;11.52;3.45;;;;;;;;;;6141345;23;20248;-90
2022/05/15 04:29:07;;;;;;;6.85;3.13;;;;;;;;;;6122726;23;20161;-90
2022/05/15 04:32:12;;;;;;;7.20;3.72;;;;;;;;;;6122132;23;20169;-91
2022/05/15 04:35:18;;;;;;;6.93;3.95;;;;;;;;;;6122770;23;20205;-89
2022/05/15 04:38:23;;;;;;;8.50;3.45;;;;;;;;;;6140189;23;20173;-91
2022/05/15 04:41:28;;;;;;;8.13;3.30;;;;;;;;;;6141216;23;20169;-90
2022/05/15 04:44:35;;;;;;;7.97;2.92;;;;;;;;;;6122225;23;20241;-91
2022/05/15 04:47:40;;;;;;;6.88;3.60;;;;;;;;;;6140105;23;20181;-90
2022/05/15 04:50:45;;;;;;;7.68;3.47;;;;;;;;;;6139358;23;20161;-91
2022/05/15 04:53:51;;;;;;;5.32;3.28;;;;;;;;;;6140392;23;20174;-91
2022/05/15 04:56:56;;;;;;;12.02;3.45;;;;;;;;;;6141797;23;20169;-90
2022/05/15 05:00:03;;;;;;;7.47;3.22;;;;;;;;;;6142590;23;20487;-91
2022/05/15 05:03:08;;;;;;;10.43;3.50;;;;;;;;;;6141972;23;20165;-91
2022/05/15 05:06:13;;;;;;;7.15;3.60;;;;;;;;;;6138938;23;20192;-90
2022/05/15 05:09:19;;;;;;;8.73;3.50;;;;;;;;;;6140216;23;20156;-91
2022/05/15 05:12:24;;;;;;;7.15;3.33;;;;;;;;;;6140135;23;20208;-91
2022/05/15 05:15:31;;;;;;;6.55;3.70;;;;;;;;;;6141580;23;20196;-90
2022/05/15 05:18:37;;;;;;;5.82;3.45;;;;;;;;;;6140211;23;20169;-91
2022/05/15 05:21:42;;;;;;;8.23;3.30;;;;;;;;;;6125079;23;20169;-90
2022/05/15 05:24:48;;;;;;;7.40;3.50;;;;;;;;;;6122925;23;20169;-90
2022/05/15 05:27:53;;;;;;;4.82;3.05;;;;;;;;;;6123881;23;20176;-91
2022/05/15 05:31:00;;;;;;;6.90;3.10;;;;;;;;;;6140621;23;20168;-89
2022/05/15 05:34:05;;;;;;;7.55;3.63;;;;;;;;;;6122676;23;20195;-91
2022/05/15 05:37:10;;;;;;;8.93;3.33;;;;;;;;;;6122176;23;20165;-91
2022/05/15 05:40:29;;;;;;;7.50;3.45;;;;;;;;;;6121950;23;20185;-90
2022/05/15 05:43:35;;;;;;;7.10;3.25;;;;;;;;;;6121970;23;20609;-91
2022/05/15 05:46:42;;;;;;;7.13;3.13;;;;;;;;;;6122179;23;20173;-91
2022/05/15 05:49:47;;;;;;;8.13;3.00;;;;;;;;;;6139334;23;20169;-90
2022/05/15 05:52:54;;;;;;;6.88;3.08;;;;;;;;;;6139634;23;20198;-90
2022/05/15 05:55:59;;;;;;;5.88;3.25;;;;;;;;;;6138797;23;20193;-92
2022/05/15 05:59:04;;;;;;;5.63;3.00;;;;;;;;;;6140599;23;20170;-91
2022/05/15 06:02:11;;;;;;;5.63;3.33;;;;;;;;;;6142965;23;20165;-91
2022/05/15 06:05:15;;;;;;;5.80;3.00;;;;;;;;;;6141187;23;20201;-91
2022/05/15 06:08:21;;;;;;;12.50;2.90;;;;;;;;;;6141442;23;20162;-91
2022/05/15 06:11:26;;;;;;;6.90;3.30;;;;;;;;;;6139699;23;20609;-92
2022/05/15 06:14:32;;;;;;;7.53;3.25;;;;;;;;;;6122959;23;20153;-91
2022/05/15 06:17:39;;;;;;;4.80;2.90;;;;;;;;;;6137582;23;20504;-91
2022/05/15 06:20:44;;;;;;;8.23;3.22;;;;;;;;;;6124031;23;20174;-92
2022/05/15 06:23:49;;;;;;;6.90;2.97;;;;;;;;;;6141118;23;20165;-91
2022/05/15 06:26:55;;;;;;;4.30;2.72;;;;;;;;;;6140030;23;20206;-92
2022/05/15 06:30:01;;;;;;;11.13;3.17;;;;;;;;;;6139446;23;20213;-91
2022/05/15 06:33:09;;;;;;;6.00;2.35;;;;;;;;;;6140332;23;20278;-89
2022/05/15 06:36:15;;;;;;;5.47;2.60;;;;;;;;;;6142119;23;20217;-90
2022/05/15 06:39:20;;;;;;;5.53;2.30;;;;;;;;;;6122016;23;20181;-92
2022/05/15 06:46:46;;;;;;;5.05;2.60;;;;;;;;;;6142693;23;20196;-92
2022/05/15 06:49:53;;;;;;;8.15;2.60;;;;;;;;;;6124222;23;20173;-91
2022/05/15 06:52:59;;;;;;;6.55;2.63;;;;;;;;;;6124386;23;20169;-91
2022/05/15 06:59:27;;;;;;;5.32;2.30;;;;;;;;;;6142265;23;20296;-93
2022/05/15 07:02:33;;;;;;;6.53;2.50;;;;;;;;;;6141822;23;20286;-92
2022/05/15 07:05:39;;;;;;;10.60;2.35;;;;;;;;;;6143125;23;20499;-91
2022/05/15 07:08:45;;;;;;;3.72;2.20;;;;;;;;;;6142301;23;20486;-91
2022/05/15 07:11:51;;;;;;;9.73;2.60;;;;;;;;;;6127194;23;20494;-92
2022/05/15 07:14:57;;;;;;;8.00;2.28;;;;;;;;;;6127977;23;20173;-92
2022/05/15 07:18:02;;;;;;;7.22;2.85;;;;;;;;;;6143387;23;20245;-93
2022/05/15 07:21:09;;;;;;;8.30;2.67;;;;;;;;;;6125636;23;20168;-92
2022/05/15 07:24:14;;;;;;;5.53;2.90;;;;;;;;;;6141085;23;20166;-92
2022/05/15 07:27:19;;;;;;;6.30;2.45;;;;;;;;;;6139045;23;20157;-95
2022/05/15 07:30:25;;;;;;;4.47;2.58;;;;;;;;;;6141249;23;20165;-91
2022/05/15 07:33:30;;;;;;;5.97;2.25;;;;;;;;;;6140139;23;20216;-91
2022/05/15 07:36:41;;;;;;;5.93;2.40;;;;;;;;;;6124419;23;20197;-92
2022/05/15 07:39:47;;;;;;;9.88;2.53;;;;;;;;;;6123066;23;20165;-92
2022/05/15 07:42:52;;;;;;;7.30;2.63;;;;;;;;;;6140983;23;20209;-93
2022/05/15 07:45:58;;;;;;;8.18;2.20;;;;;;;;;;6140200;23;20661;-92
2022/05/15 07:49:03;;;;;;;7.22;2.28;;;;;;;;;;6141575;23;20165;-90
2022/05/15 07:52:13;;;;;;;5.65;2.10;;;;;;;;;;6125253;23;20181;-92
2022/05/15 07:55:18;;;;;;;5.43;2.05;;;;;;;;;;6142629;23;20185;-91
2022/05/15 08:01:44;;;;;;;7.82;2.30;;;;;;;;;;6146439;23;20222;-93
2022/05/15 08:08:14;;;;;;;6.35;2.20;;;;;;;;;;6146239;23;20188;-93
2022/05/15 12:41:19;;;;;;;6.35;2.97;;;;;;;;;;6200858;23;20211;-91
2022/05/15 12:44:32;;;;;;;6.13;1.88;;;;;;;;;;6232860;23;20174;-94
2022/05/15 12:47:38;;;;;;;5.75;1.75;;;;;;;;;;6234149;22;20205;-92
2022/05/15 12:51:01;;;;;;;4.72;1.65;;;;;;;;;;6234406;23;20166;-92
2022/05/15 12:54:23;;;;;;;5.78;1.80;;;;;;;;;;6232873;23;20166;-93
2022/05/15 12:57:40;;;;;;;4.30;1.60;;;;;;;;;;6214423;23;20195;-94
2022/05/15 13:00:45;;;;;;;3.05;1.50;;;;;;;;;;6213445;23;20150;-94
2022/05/15 13:03:53;;;;;;;4.55;1.60;;;;;;;;;;6231253;23;20167;-91
2022/05/15 13:06:59;;;;;;;4.47;1.58;;;;;;;;;;6234232;23;20202;-93
2022/05/15 13:10:06;;;;;;;6.45;1.70;;;;;;;;;;6233501;23;20499;-94
2022/05/15 13:13:17;;;;;;;3.97;1.40;;;;;;;;;;6213573;23;20166;-92
2022/05/15 13:16:27;;;;;;;4.85;1.75;;;;;;;;;;6213798;23;20266;-93
2022/05/15 13:23:53;;;;;;;4.40;1.60;;;;;;;;;;6232539;23;20154;-93
2022/05/15 13:26:59;;;;;;;3.47;1.50;;;;;;;;;;6215125;23;20167;-94
2022/05/15 13:30:06;;;;;;;3.65;1.70;;;;;;;;;;6212954;23;20171;-93
2022/05/15 13:33:13;;;;;;;3.92;1.52;;;;;;;;;;6214595;23;20166;-93
2022/05/15 13:36:18;;;;;;;5.22;1.42;;;;;;;;;;6232633;22;20276;-93
2022/05/15 13:46:21;;;;;;;4.45;1.30;;;;;;;;;;6203213;23;20159;-93
2022/05/15 13:49:38;;;;;;;3.88;1.48;;;;;;;;;;6204274;23;20548;-92
2022/05/15 13:52:48;;;;;;;3.25;1.52;;;;;;;;;;6204813;23;20283;-94
2022/05/15 13:55:55;;;;;;;7.15;1.60;;;;;;;;;;6188957;23;20210;-92
2022/05/15 13:59:00;;;;;;;4.53;1.40;;;;;;;;;;6206795;23;20156;-92
2022/05/15 14:02:11;;;;;;;4.93;1.77;;;;;;;;;;6205270;23;20227;-92
2022/05/15 14:05:17;;;;;;;6.13;1.65;;;;;;;;;;6204832;23;20212;-91
2022/05/15 14:08:24;;;;;;;4.50;1.50;;;;;;;;;;6204606;23;20159;-93
2022/05/15 14:15:07;;;;;;;4.55;1.42;;;;;;;;;;6204645;23;20179;-92
2022/05/15 14:18:27;;;;;;;3.63;1.60;;;;;;;;;;6203698;23;20171;-92
2022/05/15 14:21:33;;;;;;;4.90;1.52;;;;;;;;;;6187316;23;20254;-92
2022/05/15 14:24:39;;;;;;;5.68;2.10;;;;;;;;;;6206046;23;20481;-92
2022/05/15 14:27:45;;;;;;;3.67;1.60;;;;;;;;;;6202957;23;20196;-93
2022/05/15 14:30:50;;;;;;;3.65;1.60;;;;;;;;;;6204384;23;20179;-92
2022/05/15 14:33:57;;;;;;;3.97;1.48;;;;;;;;;;6203938;23;20640;-92
2022/05/15 14:37:15;;;;;;;4.25;1.50;;;;;;;;;;6204857;23;20301;-92
2022/05/15 14:40:22;;;;;;;3.78;1.48;;;;;;;;;;6208165;23;20167;-93
2022/05/15 14:43:28;;;;;;;3.60;1.73;;;;;;;;;;6216966;23;20158;-92
2022/05/15 14:46:36;;;;;;;4.53;1.95;;;;;;;;;;6234889;23;20155;-92
2022/05/15 14:49:47;;;;;;;5.53;2.13;;;;;;;;;;6216552;23;20166;-90
2022/05/15 14:52:56;;;;;;;13.70;1.80;;;;;;;;;;6237804;23;20170;-93
2022/05/15 14:56:10;;;;;;;3.92;1.55;;;;;;;;;;6234199;23;20646;-93
2022/05/15 14:59:18;;;;;;;5.45;1.55;;;;;;;;;;6213889;23;20174;-92
2022/05/15 15:02:23;;;;;;;3.03;1.55;;;;;;;;;;6234270;23;20199;-92
2022/05/15 15:05:44;;;;;;;5.50;1.85;;;;;;;;;;6235393;23;20147;-93
2022/05/15 15:08:50;;;;;;;11.05;1.48;;;;;;;;;;6220178;23;20146;-91
2022/05/15 15:12:02;;;;;;;7.15;1.95;;;;;;;;;;6234947;23;20319;-91
2022/05/15 15:15:08;;;;;;;6.55;1.50;;;;;;;;;;6219244;23;20155;-92
2022/05/15 15:18:14;;;;;;;8.45;2.42;;;;;;;;;;6216500;23;20211;-92
2022/05/15 15:21:26;;;;;;;5.63;1.40;;;;;;;;;;6234930;23;20171;-91
2022/05/15 15:27:56;;;;;;;7.38;1.85;;;;;;;;;;6219844;23;20190;-91
2022/05/15 15:31:01;;;;;;;3.83;1.40;;;;;;;;;;6234270;23;20163;-92
2022/05/15 15:34:08;;;;;;;7.25;1.65;;;;;;;;;;6234168;23;20167;-93
2022/05/15 15:40:39;;;;;;;4.35;1.60;;;;;;;;;;6233423;22;20218;-93
2022/05/15 15:43:45;;;;;;;4.00;1.40;;;;;;;;;;6216790;23;20159;-93
2022/05/15 15:46:50;;;;;;;5.35;2.00;;;;;;;;;;6216014;23;20194;-92
2022/05/15 15:49:55;;;;;;;5.82;1.45;;;;;;;;;;6234826;23;20171;-93
2022/05/15 18:14:53;;;;;;;8.00;2.80;;;;;;;;;;6147597;23;20406;-93
